Time;durP1;ratioP1;P1;durP2;ratioP2;P2;SDS_P1;SDS_P2;PMS_P1;PMS_P2;Temp;Humidity;BMP_temperature;BMP_pressure;BME280_temperature;BME280_humidity;BME280_pressure;Samples;Min_cycle;Max_cycle;Signal;HPM_P1;HPM_P2
2022/08/30 00:03:27;;;;;;;3.38;2.50;;;15.30;99.90;;;;;;5001674;28;20397;-76
2022/08/30 00:05:53;;;;;;;3.78;2.60;;;15.30;99.90;;;;;;5015406;28;20041;-75
2022/08/30 00:08:19;;;;;;;3.47;2.40;;;15.20;99.90;;;;;;5015484;28;20049;-76
2022/08/30 00:10:45;;;;;;;3.33;2.20;;;15.20;99.90;;;;;;5015759;28;20490;-75
2022/08/30 00:13:12;;;;;;;2.55;2.28;;;15.20;99.90;;;;;;4999384;28;20080;-77
2022/08/30 00:15:40;;;;;;;3.50;2.60;;;15.20;99.90;;;;;;4982303;28;20490;-75
2022/08/30 00:18:07;;;;;;;4.10;2.25;;;15.20;99.90;;;;;;4999216;28;20052;-77
2022/08/30 00:20:34;;;;;;;3.17;2.35;;;15.20;99.90;;;;;;5015430;28;20045;-75
2022/08/30 00:23:01;;;;;;;3.97;2.53;;;15.20;99.90;;;;;;4999588;28;20120;-74
2022/08/30 00:25:27;;;;;;;3.33;2.30;;;15.10;99.90;;;;;;5025642;28;20060;-76
2022/08/30 00:27:53;;;;;;;3.35;2.20;;;15.20;99.90;;;;;;5018400;28;20114;-76
2022/08/30 00:30:19;;;;;;;4.40;2.60;;;14.90;99.90;;;;;;4986163;28;20045;-77
2022/08/30 00:32:45;;;;;;;3.63;2.13;;;14.70;99.90;;;;;;5034512;28;20049;-77
2022/08/30 00:35:13;;;;;;;4.43;2.25;;;14.70;99.90;;;;;;5002161;28;20178;-75
2022/08/30 00:37:39;;;;;;;2.97;2.10;;;14.60;99.90;;;;;;5018032;28;20074;-74
2022/08/30 00:40:08;;;;;;;3.95;2.20;;;14.50;99.90;;;;;;5034464;28;20033;-74
2022/08/30 00:42:34;;;;;;;2.40;2.20;;;14.40;99.90;;;;;;5034630;28;20045;-76
2022/08/30 00:45:07;;;;;;;3.90;2.70;;;14.40;99.90;;;;;;5034437;28;20048;-76
2022/08/30 00:47:33;;;;;;;3.87;2.03;;;14.50;99.90;;;;;;5017780;28;20056;-75
2022/08/30 00:49:59;;;;;;;4.10;3.10;;;14.60;99.90;;;;;;5001897;28;20287;-76
2022/08/30 00:52:24;;;;;;;4.10;2.75;;;14.60;99.90;;;;;;5001780;28;20075;-76
2022/08/30 00:54:51;;;;;;;3.67;2.90;;;14.70;99.90;;;;;;5017830;28;20131;-74
2022/08/30 00:57:18;;;;;;;4.45;2.33;;;14.80;99.90;;;;;;5034338;28;20572;-75
2022/08/30 00:59:48;;;;;;;3.13;2.55;;;14.80;99.90;;;;;;5017343;28;20056;-76
2022/08/30 01:02:16;;;;;;;5.18;3.10;;;15.00;99.90;;;;;;5017664;28;20037;-77
2022/08/30 01:04:43;;;;;;;7.65;3.20;;;15.00;99.90;;;;;;5033803;28;20048;-75
2022/08/30 01:07:10;;;;;;;3.97;3.00;;;15.00;99.90;;;;;;5033941;28;20067;-75
2022/08/30 01:09:36;;;;;;;3.97;3.10;;;15.00;99.90;;;;;;5017360;28;20079;-77
2022/08/30 01:12:04;;;;;;;5.53;3.60;;;15.00;99.90;;;;;;5034570;28;20045;-76
2022/08/30 01:14:32;;;;;;;6.20;3.15;;;15.10;99.90;;;;;;5018621;28;20400;-75
2022/08/30 01:17:00;;;;;;;4.10;3.70;;;15.10;99.90;;;;;;5034140;28;20052;-75
2022/08/30 01:19:51;;;;;;;5.55;3.35;;;15.20;99.90;;;;;;5016475;28;20039;-75
2022/08/30 01:22:58;;;;;;;6.80;3.17;;;15.20;99.90;;;;;;5017528;28;20094;-75
2022/08/30 01:25:27;;;;;;;5.43;2.97;;;15.20;99.90;;;;;;5020340;28;20056;-73
2022/08/30 01:28:04;;;;;;;4.72;3.53;;;15.20;99.90;;;;;;5033035;28;20057;-75
2022/08/30 01:30:31;;;;;;;6.22;3.28;;;15.20;99.90;;;;;;5034067;28;20189;-75
2022/08/30 01:33:00;;;;;;;7.75;3.97;;;15.20;99.90;;;;;;5032878;28;20041;-76
2022/08/30 01:35:27;;;;;;;8.20;3.55;;;15.20;99.90;;;;;;5032904;28;20041;-75
2022/08/30 01:37:53;;;;;;;6.00;3.03;;;15.20;99.90;;;;;;5033078;28;20085;-74
2022/08/30 01:40:19;;;;;;;4.53;3.38;;;15.20;99.90;;;;;;5017235;28;20694;-74
2022/08/30 01:42:45;;;;;;;8.50;3.60;;;15.20;99.90;;;;;;5033330;28;20037;-75
2022/08/30 01:45:12;;;;;;;5.47;3.40;;;15.20;99.90;;;;;;5033664;28;20136;-74
2022/08/30 01:47:39;;;;;;;3.83;3.03;;;15.20;99.90;;;;;;5033084;28;20045;-74
2022/08/30 01:50:06;;;;;;;4.22;3.38;;;15.20;99.90;;;;;;5017148;28;20041;-73
2022/08/30 01:52:34;;;;;;;4.85;4.03;;;15.20;99.90;;;;;;5033693;28;20037;-74
2022/08/30 01:55:00;;;;;;;6.97;4.60;;;15.20;99.90;;;;;;5033138;28;20131;-76
2022/08/30 01:57:27;;;;;;;6.18;4.90;;;15.10;99.90;;;;;;5033501;28;20691;-74
2022/08/30 01:59:53;;;;;;;6.13;4.65;;;15.20;99.90;;;;;;5016533;28;20048;-76
2022/08/30 02:02:27;;;;;;;5.25;4.47;;;15.20;99.90;;;;;;5033195;28;20051;-76
2022/08/30 02:04:55;;;;;;;6.40;4.45;;;15.20;99.90;;;;;;5016376;28;20032;-74
2022/08/30 02:07:22;;;;;;;6.53;4.57;;;15.20;99.90;;;;;;5033272;28;20049;-74
2022/08/30 02:09:48;;;;;;;5.03;4.38;;;15.20;99.90;;;;;;5000519;28;20037;-74
2022/08/30 02:12:14;;;;;;;5.65;4.85;;;15.20;99.90;;;;;;5033467;28;20438;-75
2022/08/30 02:14:40;;;;;;;5.63;4.60;;;15.20;99.90;;;;;;5016501;28;20073;-76
2022/08/30 02:17:08;;;;;;;5.95;4.45;;;15.20;99.90;;;;;;5032582;28;20448;-74
2022/08/30 02:19:34;;;;;;;5.55;4.50;;;15.20;99.90;;;;;;5033315;28;20029;-75
2022/08/30 02:21:59;;;;;;;7.55;5.25;;;15.20;99.90;;;;;;5032643;28;20044;-74
2022/08/30 02:24:26;;;;;;;8.02;4.95;;;15.20;99.90;;;;;;5016812;28;20123;-75
2022/08/30 02:26:53;;;;;;;6.22;4.07;;;15.20;99.90;;;;;;5032486;28;20049;-75
2022/08/30 02:29:20;;;;;;;7.10;4.43;;;15.20;99.90;;;;;;5033631;28;20428;-74
2022/08/30 02:31:45;;;;;;;6.95;4.25;;;15.20;99.90;;;;;;5036835;28;20103;-76
2022/08/30 02:34:11;;;;;;;5.13;3.88;;;15.20;99.90;;;;;;5004723;28;20425;-74
2022/08/30 02:36:39;;;;;;;8.25;4.70;;;15.20;99.90;;;;;;5036892;28;20083;-74
2022/08/30 02:39:05;;;;;;;5.50;3.95;;;15.10;99.90;;;;;;5037186;28;20125;-76
2022/08/30 02:41:31;;;;;;;5.20;4.60;;;15.10;99.90;;;;;;5020347;28;20072;-74
2022/08/30 02:43:59;;;;;;;6.78;4.15;;;15.10;99.90;;;;;;5036422;28;20473;-74
2022/08/30 02:46:27;;;;;;;5.55;4.50;;;15.10;99.90;;;;;;5020693;28;20068;-74
2022/08/30 02:48:53;;;;;;;8.43;4.55;;;15.10;99.90;;;;;;5036884;28;20110;-76
2022/08/30 02:51:19;;;;;;;5.60;5.05;;;15.10;99.90;;;;;;5020594;28;20048;-74
2022/08/30 02:53:45;;;;;;;6.63;4.68;;;15.10;99.90;;;;;;5019839;28;20040;-75
2022/08/30 02:56:12;;;;;;;8.60;5.72;;;15.10;99.90;;;;;;5020130;28;20052;-76
2022/08/30 02:58:41;;;;;;;7.13;6.18;;;15.10;99.90;;;;;;5020500;28;20433;-75
2022/08/30 03:01:08;;;;;;;9.38;7.07;;;15.10;99.90;;;;;;5020530;28;20041;-76
2022/08/30 03:03:34;;;;;;;13.07;7.88;;;15.00;99.90;;;;;;5004404;28;20037;-76
2022/08/30 03:06:02;;;;;;;11.18;8.10;;;15.00;99.90;;;;;;5036168;28;20394;-75
2022/08/30 03:08:29;;;;;;;10.63;8.02;;;15.00;99.90;;;;;;5020426;28;20041;-75
2022/08/30 03:10:56;;;;;;;8.85;7.95;;;15.00;99.90;;;;;;5036431;28;20055;-76
2022/08/30 03:13:23;;;;;;;10.88;8.68;;;15.00;99.90;;;;;;5003988;28;20041;-77
2022/08/30 03:15:49;;;;;;;10.15;9.10;;;15.00;99.90;;;;;;5019406;28;20041;-75
2022/08/30 03:18:16;;;;;;;9.73;8.70;;;15.00;99.90;;;;;;5005917;28;20416;-76
2022/08/30 03:20:42;;;;;;;13.18;9.32;;;15.00;99.90;;;;;;5040058;28;20044;-77
2022/08/30 03:23:08;;;;;;;11.55;8.82;;;15.00;99.90;;;;;;5039664;28;20037;-77
2022/08/30 03:25:34;;;;;;;12.02;9.00;;;15.00;99.90;;;;;;5036255;28;20087;-75
2022/08/30 03:27:59;;;;;;;12.73;9.23;;;14.90;99.90;;;;;;5052315;28;20052;-76
2022/08/30 03:30:25;;;;;;;8.95;7.97;;;15.00;99.90;;;;;;5052727;28;20043;-75
2022/08/30 03:32:51;;;;;;;10.02;8.07;;;14.90;99.90;;;;;;5052273;28;20127;-76
2022/08/30 03:35:17;;;;;;;9.70;7.90;;;14.90;99.90;;;;;;5036005;28;20119;-77
2022/08/30 03:37:44;;;;;;;9.00;6.57;;;14.80;99.90;;;;;;5036403;28;20429;-76
2022/08/30 03:40:12;;;;;;;8.20;6.40;;;14.80;99.90;;;;;;5019910;28;20037;-76
2022/08/30 03:42:40;;;;;;;7.50;6.00;;;14.80;99.90;;;;;;5034706;28;20542;-75
2022/08/30 03:45:06;;;;;;;6.40;5.70;;;14.80;99.90;;;;;;5052385;28;20489;-75
2022/08/30 03:47:33;;;;;;;5.50;5.00;;;14.70;99.90;;;;;;5052602;28;20044;-76
2022/08/30 03:49:59;;;;;;;5.10;4.55;;;14.70;99.90;;;;;;5035799;28;20392;-76
2022/08/30 03:52:25;;;;;;;5.03;4.22;;;14.60;99.90;;;;;;5035825;28;20041;-77
2022/08/30 03:54:51;;;;;;;6.05;4.97;;;14.60;99.90;;;;;;5051462;28;20072;-76
2022/08/30 03:57:17;;;;;;;6.22;4.80;;;14.50;99.90;;;;;;5052047;28;20081;-77
2022/08/30 03:59:42;;;;;;;6.60;4.60;;;14.60;99.90;;;;;;5052252;28;20712;-76
2022/08/30 04:02:08;;;;;;;4.30;3.63;;;14.50;99.90;;;;;;5019077;28;20131;-76
2022/08/30 04:04:34;;;;;;;4.28;3.88;;;14.50;99.90;;;;;;5035616;28;20037;-76
2022/08/30 04:06:59;;;;;;;6.00;4.28;;;14.50;99.90;;;;;;5035135;28;20040;-77
2022/08/30 04:09:25;;;;;;;5.57;4.13;;;14.50;99.90;;;;;;5035468;28;20478;-76
2022/08/30 04:11:51;;;;;;;4.82;3.75;;;14.50;99.90;;;;;;5051662;28;20056;-77
2022/08/30 04:14:17;;;;;;;4.05;3.50;;;14.50;99.90;;;;;;5051995;28;20119;-77
2022/08/30 04:16:43;;;;;;;5.63;3.78;;;14.50;99.90;;;;;;5051763;28;20076;-75
2022/08/30 04:19:10;;;;;;;7.57;3.88;;;14.40;99.90;;;;;;5034744;28;20053;-77
2022/08/30 04:21:35;;;;;;;5.18;4.13;;;14.40;99.90;;;;;;5035208;28;20041;-77
2022/08/30 04:24:02;;;;;;;6.43;3.33;;;14.40;99.90;;;;;;5034522;28;20048;-77
2022/08/30 04:26:29;;;;;;;6.90;3.67;;;14.40;99.90;;;;;;5018240;28;20106;-74
2022/08/30 04:28:55;;;;;;;3.88;3.13;;;14.40;99.90;;;;;;5051481;28;20055;-75
2022/08/30 04:31:21;;;;;;;4.85;3.60;;;14.40;99.90;;;;;;5034810;28;20049;-75
2022/08/30 04:33:46;;;;;;;6.75;3.72;;;14.40;99.90;;;;;;5035154;28;20398;-76
2022/08/30 04:36:13;;;;;;;4.90;3.80;;;14.40;99.90;;;;;;5050663;28;20135;-76
2022/08/30 04:38:40;;;;;;;4.35;3.40;;;14.30;99.90;;;;;;5051447;28;20044;-76
2022/08/30 04:41:12;;;;;;;5.28;3.30;;;14.30;99.90;;;;;;5051129;28;20132;-77
2022/08/30 04:43:38;;;;;;;4.68;3.22;;;14.30;99.90;;;;;;5051381;28;20044;-76
2022/08/30 04:46:06;;;;;;;5.18;4.00;;;14.30;99.90;;;;;;5034558;28;20123;-76
2022/08/30 04:48:32;;;;;;;4.28;3.65;;;14.30;99.90;;;;;;5051210;28;20483;-75
2022/08/30 04:50:58;;;;;;;3.80;3.30;;;14.30;99.90;;;;;;5051098;28;20070;-76
2022/08/30 04:53:24;;;;;;;5.30;4.00;;;14.30;99.90;;;;;;5051032;28;20135;-77
2022/08/30 04:55:49;;;;;;;5.38;3.53;;;14.30;99.90;;;;;;5050987;28;20045;-74
2022/08/30 04:58:16;;;;;;;5.30;4.22;;;14.30;99.90;;;;;;5034133;28;20037;-75
2022/08/30 05:00:45;;;;;;;4.45;3.42;;;14.30;99.90;;;;;;5034534;28;20485;-74
2022/08/30 05:03:11;;;;;;;4.20;3.55;;;14.30;99.90;;;;;;5034204;28;20041;-75
2022/08/30 05:05:40;;;;;;;5.03;3.00;;;14.20;99.90;;;;;;5051244;28;20443;-76
2022/08/30 05:08:11;;;;;;;4.47;3.63;;;14.20;99.90;;;;;;5033948;28;20048;-77
2022/08/30 05:10:42;;;;;;;3.90;3.40;;;14.20;99.90;;;;;;5034467;28;20043;-76
2022/08/30 05:13:09;;;;;;;4.80;4.13;;;14.20;99.90;;;;;;5050859;28;20473;-77
2022/08/30 05:15:35;;;;;;;6.05;4.00;;;14.20;99.90;;;;;;5034281;28;20158;-76
2022/08/30 05:18:01;;;;;;;4.97;3.50;;;14.10;99.90;;;;;;5050582;28;20123;-77
2022/08/30 05:20:27;;;;;;;7.07;3.97;;;14.10;99.90;;;;;;5017837;28;20052;-76
2022/08/30 05:22:53;;;;;;;4.72;3.85;;;14.10;99.90;;;;;;5034372;28;20033;-76
2022/08/30 05:25:22;;;;;;;7.50;3.45;;;14.10;99.90;;;;;;5033654;28;20048;-77
2022/08/30 05:27:48;;;;;;;4.03;3.33;;;14.10;99.90;;;;;;5050736;28;20103;-77
2022/08/30 05:30:15;;;;;;;5.20;3.88;;;14.10;99.90;;;;;;5017358;28;20036;-78
2022/08/30 05:32:42;;;;;;;6.75;4.20;;;14.20;99.90;;;;;;5034085;28;20029;-74
2022/08/30 05:35:10;;;;;;;4.85;4.35;;;14.20;99.90;;;;;;5033462;28;20040;-75
2022/08/30 05:37:36;;;;;;;6.15;3.80;;;14.20;99.90;;;;;;5017691;28;20048;-77
2022/08/30 05:40:04;;;;;;;6.68;3.92;;;14.20;99.90;;;;;;5050046;28;20068;-75
2022/08/30 05:42:30;;;;;;;7.25;4.45;;;14.30;99.90;;;;;;5017450;28;20503;-77
2022/08/30 05:44:55;;;;;;;6.95;3.97;;;14.30;99.90;;;;;;5016770;28;20037;-76
2022/08/30 05:47:21;;;;;;;6.20;4.10;;;14.40;99.90;;;;;;5034237;28;20369;-77
2022/08/30 05:49:48;;;;;;;5.00;3.75;;;14.40;99.90;;;;;;5033898;28;20041;-76
2022/08/30 05:52:16;;;;;;;6.18;3.83;;;14.50;99.90;;;;;;5033596;28;20036;-75
2022/08/30 05:54:43;;;;;;;3.92;3.53;;;14.50;99.90;;;;;;5034131;28;20041;-76
2022/08/30 05:57:09;;;;;;;5.72;4.38;;;14.60;99.90;;;;;;5049815;28;20072;-76
2022/08/30 05:59:34;;;;;;;5.28;3.67;;;14.60;99.90;;;;;;5017492;28;20079;-77
2022/08/30 06:02:00;;;;;;;6.13;4.35;;;14.60;99.90;;;;;;5016741;28;20044;-76
2022/08/30 06:04:26;;;;;;;5.30;3.60;;;14.70;99.90;;;;;;5033316;28;20041;-77
2022/08/30 06:06:52;;;;;;;5.32;4.10;;;14.70;99.90;;;;;;5033362;28;20079;-78
2022/08/30 06:09:18;;;;;;;7.47;4.07;;;14.80;99.90;;;;;;5049688;28;20064;-78
2022/08/30 06:11:45;;;;;;;4.40;3.60;;;14.80;99.90;;;;;;5050380;28;20041;-78
2022/08/30 06:14:11;;;;;;;5.50;3.80;;;14.90;99.90;;;;;;5049703;28;20049;-77
2022/08/30 06:16:39;;;;;;;8.00;3.72;;;15.00;99.90;;;;;;5000938;28;20041;-79
2022/08/30 06:19:07;;;;;;;5.78;4.30;;;15.00;99.90;;;;;;5000792;28;20076;-78
2022/08/30 06:21:35;;;;;;;4.38;3.63;;;15.10;99.90;;;;;;5017380;28;20037;-78
2022/08/30 06:24:02;;;;;;;5.68;4.10;;;15.20;99.90;;;;;;5001271;28;20397;-80
2022/08/30 06:26:28;;;;;;;7.82;4.68;;;15.10;99.90;;;;;;5000736;28;20060;-79
2022/08/30 06:28:55;;;;;;;5.82;4.00;;;15.20;99.90;;;;;;5033537;28;20047;-77
2022/08/30 06:31:23;;;;;;;8.02;4.60;;;15.40;99.90;;;;;;5032426;28;20536;-77
2022/08/30 06:33:50;;;;;;;4.40;4.00;;;15.50;99.90;;;;;;5033264;28;20512;-78
2022/08/30 06:36:19;;;;;;;6.95;4.60;;;15.50;99.90;;;;;;5032760;28;20056;-80
2022/08/30 06:38:46;;;;;;;7.70;5.07;;;15.60;99.90;;;;;;5032982;28;20120;-77
2022/08/30 06:41:15;;;;;;;10.60;5.22;;;15.70;99.90;;;;;;5032561;28;20047;-76
2022/08/30 06:43:41;;;;;;;6.75;4.57;;;15.80;99.90;;;;;;5033036;28;20072;-78
2022/08/30 06:46:10;;;;;;;4.63;4.13;;;15.90;99.90;;;;;;5000245;28;20045;-77
2022/08/30 06:48:36;;;;;;;8.38;4.20;;;16.00;99.90;;;;;;5016960;28;20091;-77
2022/08/30 06:51:02;;;;;;;7.28;4.35;;;16.00;99.90;;;;;;5000623;28;20037;-77
2022/08/30 06:53:30;;;;;;;5.65;4.30;;;16.00;99.90;;;;;;5017279;28;20083;-77
2022/08/30 06:55:58;;;;;;;6.75;4.05;;;16.30;99.90;;;;;;5000896;28;20041;-78
2022/08/30 06:58:24;;;;;;;4.95;4.13;;;16.30;99.90;;;;;;5016629;28;20402;-79
2022/08/30 07:00:49;;;;;;;4.65;3.30;;;16.30;99.90;;;;;;5033599;28;20041;-76
2022/08/30 07:03:15;;;;;;;5.50;2.92;;;16.40;99.90;;;;;;5032420;28;20041;-77
2022/08/30 07:05:41;;;;;;;4.50;2.75;;;16.40;99.90;;;;;;5032746;28;20090;-77
2022/08/30 07:08:07;;;;;;;3.58;2.47;;;16.50;99.90;;;;;;4999686;28;20045;-79
2022/08/30 07:10:32;;;;;;;3.92;2.40;;;16.70;99.90;;;;;;5016199;28;20109;-77
2022/08/30 07:12:58;;;;;;;4.35;2.38;;;16.70;99.90;;;;;;5015795;28;20103;-77
2022/08/30 07:15:24;;;;;;;4.05;2.22;;;16.70;99.90;;;;;;4998883;28;20052;-78
2022/08/30 07:20:37;;;;;;;4.67;1.70;;;16.80;99.90;;;;;;5036076;28;20094;-76
2022/08/30 07:23:09;;;;;;;2.00;1.73;;;16.80;99.90;;;;;;5019825;28;20374;-80
2022/08/30 07:25:37;;;;;;;2.78;1.40;;;16.90;99.90;;;;;;5019985;28;20092;-79
2022/08/30 07:28:04;;;;;;;4.30;1.38;;;16.90;99.90;;;;;;5019697;28;20041;-79
2022/08/30 07:30:30;;;;;;;6.78;1.60;;;16.90;99.90;;;;;;5020392;28;20362;-80
2022/08/30 07:32:57;;;;;;;2.92;1.35;;;17.00;99.90;;;;;;5019938;28;20047;-78
2022/08/30 07:35:23;;;;;;;2.38;1.40;;;17.00;99.90;;;;;;5003049;28;20036;-78
2022/08/30 07:37:49;;;;;;;2.20;1.27;;;17.10;99.90;;;;;;5036048;28;20445;-76
2022/08/30 07:40:15;;;;;;;2.83;1.20;;;17.10;99.90;;;;;;5035741;28;20129;-77
2022/08/30 07:42:42;;;;;;;1.92;1.17;;;17.10;99.90;;;;;;5019918;28;20032;-77
2022/08/30 07:45:09;;;;;;;3.20;1.35;;;17.20;99.90;;;;;;5018614;28;20045;-78
2022/08/30 07:47:35;;;;;;;3.33;1.40;;;17.30;99.90;;;;;;5003271;28;20047;-77
2022/08/30 07:50:02;;;;;;;1.70;1.15;;;17.40;99.90;;;;;;5035801;28;20040;-78
2022/08/30 07:52:28;;;;;;;5.25;1.30;;;17.40;99.90;;;;;;5019225;28;20147;-78
2022/08/30 07:54:54;;;;;;;2.70;1.15;;;17.40;99.90;;;;;;5002465;28;20176;-76
2022/08/30 07:57:20;;;;;;;2.58;1.33;;;17.40;99.90;;;;;;5018516;28;20055;-76
2022/08/30 07:59:46;;;;;;;4.15;1.20;;;17.50;99.90;;;;;;5019396;28;20037;-77
2022/08/30 08:02:11;;;;;;;2.00;1.20;;;17.60;99.90;;;;;;5035087;28;20058;-78
2022/08/30 08:04:37;;;;;;;5.35;1.20;;;17.60;99.90;;;;;;5002652;28;20045;-78
2022/08/30 08:07:03;;;;;;;2.72;1.40;;;17.60;99.90;;;;;;5001850;28;20048;-77
2022/08/30 08:09:28;;;;;;;3.17;1.30;;;17.70;99.90;;;;;;5019003;28;20061;-77
2022/08/30 08:11:54;;;;;;;3.47;1.35;;;17.70;99.90;;;;;;5019020;28;20489;-77
2022/08/30 08:14:22;;;;;;;5.38;1.35;;;17.70;99.90;;;;;;5002246;28;20056;-77
2022/08/30 08:16:48;;;;;;;2.55;1.20;;;17.90;99.90;;;;;;5035004;28;20079;-79
2022/08/30 08:19:14;;;;;;;2.22;1.38;;;17.90;99.90;;;;;;5002183;28;20036;-78
2022/08/30 08:21:40;;;;;;;2.63;1.30;;;18.00;99.90;;;;;;5002161;28;20724;-76
2022/08/30 08:24:06;;;;;;;5.53;1.48;;;18.00;99.90;;;;;;5001660;28;20041;-76
2022/08/30 08:26:37;;;;;;;2.85;1.20;;;18.00;99.90;;;;;;5018327;28;20103;-76
2022/08/30 08:29:05;;;;;;;2.17;1.08;;;18.00;99.90;;;;;;5018349;28;20067;-77
2022/08/30 08:31:31;;;;;;;5.07;1.30;;;17.90;99.90;;;;;;5018834;28;20512;-78
2022/08/30 08:33:58;;;;;;;1.80;1.30;;;17.80;99.90;;;;;;5031921;28;20063;-77
2022/08/30 08:36:25;;;;;;;2.33;1.25;;;18.00;99.90;;;;;;5024118;28;20044;-78
2022/08/30 08:38:51;;;;;;;2.15;1.30;;;18.00;99.90;;;;;;5001104;28;20044;-79
2022/08/30 08:41:45;;;;;;;3.13;1.40;;;17.90;99.90;;;;;;5001109;28;20045;-80
2022/08/30 08:44:29;;;;;;;2.30;1.10;;;18.00;99.90;;;;;;5033780;28;20045;-77
2022/08/30 08:47:15;;;;;;;1.95;1.00;;;18.00;99.90;;;;;;5018032;28;20055;-78
2022/08/30 08:49:45;;;;;;;2.17;1.40;;;18.10;99.90;;;;;;5034052;28;20051;-78
2022/08/30 08:55:31;;;;;;;2.90;1.13;;;18.20;99.90;;;;;;5032955;28;20137;-80
2022/08/30 08:57:57;;;;;;;2.72;1.10;;;18.50;99.90;;;;;;5017599;28;20045;-79
2022/08/30 09:00:22;;;;;;;2.25;1.30;;;18.60;99.90;;;;;;4999997;28;20052;-80
2022/08/30 09:03:00;;;;;;;2.38;1.35;;;18.60;99.90;;;;;;5001097;28;20037;-78
2022/08/30 09:05:33;;;;;;;1.85;1.10;;;19.00;99.90;;;;;;5033122;28;20033;-78
2022/08/30 09:08:07;;;;;;;2.33;1.60;;;19.10;99.90;;;;;;5016955;28;20036;-77
2022/08/30 09:10:34;;;;;;;6.97;1.40;;;19.00;99.90;;;;;;5016937;28;20037;-79
2022/08/30 09:13:00;;;;;;;1.38;1.20;;;19.30;99.90;;;;;;5033160;28;20049;-78
2022/08/30 09:15:32;;;;;;;2.42;1.10;;;18.90;99.90;;;;;;5016778;28;20382;-78
2022/08/30 09:17:59;;;;;;;2.08;1.27;;;19.00;99.90;;;;;;5066469;28;20127;-78
2022/08/30 09:20:42;;;;;;;1.48;1.02;;;19.30;99.90;;;;;;5016120;28;20073;-78
2022/08/30 09:23:27;;;;;;;2.20;1.33;;;19.60;99.90;;;;;;5016186;28;20072;-78
2022/08/30 09:26:07;;;;;;;2.03;1.45;;;19.60;99.90;;;;;;5021024;28;20053;-79
2022/08/30 09:28:47;;;;;;;2.55;1.30;;;19.60;99.90;;;;;;5013202;28;20056;-78
2022/08/30 09:31:25;;;;;;;2.33;1.40;;;19.30;99.90;;;;;;5012698;28;20052;-78
2022/08/30 09:34:18;;;;;;;1.40;1.10;;;19.50;99.90;;;;;;4996740;28;20084;-76
2022/08/30 09:36:48;;;;;;;2.00;1.40;;;19.50;99.90;;;;;;4996206;28;20080;-79
2022/08/30 09:39:40;;;;;;;1.45;1.10;;;19.60;99.90;;;;;;4995810;28;20041;-78
2022/08/30 09:42:27;;;;;;;2.17;1.20;;;20.00;99.90;;;;;;4996636;28;20390;-76
2022/08/30 09:45:09;;;;;;;1.40;1.13;;;20.00;99.90;;;;;;4996469;28;20029;-78
2022/08/30 09:47:40;;;;;;;1.77;1.30;;;20.30;99.90;;;;;;4996556;28;20049;-78
2022/08/30 09:50:08;;;;;;;2.55;1.33;;;20.50;99.90;;;;;;4996321;28;20037;-77
2022/08/30 09:52:39;;;;;;;2.88;1.25;;;20.70;99.90;;;;;;4996934;28;20048;-79
2022/08/30 09:55:16;;;;;;;2.15;1.50;;;21.20;99.90;;;;;;4996617;28;20041;-79
2022/08/30 09:58:02;;;;;;;2.65;1.05;;;21.30;99.90;;;;;;4996570;28;20452;-78
2022/08/30 10:00:34;;;;;;;2.92;1.10;;;21.50;99.90;;;;;;4998515;28;20131;-78
2022/08/30 10:03:18;;;;;;;2.15;1.15;;;21.50;99.90;;;;;;4996268;28;20041;-77
2022/08/30 10:06:10;;;;;;;2.47;1.30;;;20.60;99.90;;;;;;4996029;28;20052;-76
2022/08/30 10:08:45;;;;;;;2.10;1.20;;;20.60;99.90;;;;;;4996081;28;20438;-77
2022/08/30 10:11:45;;;;;;;2.25;1.08;;;20.50;99.90;;;;;;5011891;28;20037;-77
2022/08/30 10:14:26;;;;;;;2.22;1.20;;;21.20;99.90;;;;;;4995365;28;20091;-76
2022/08/30 10:16:58;;;;;;;2.22;1.10;;;21.00;99.90;;;;;;5012243;28;20133;-79
2022/08/30 10:19:45;;;;;;;2.40;1.00;;;21.10;99.90;;;;;;4995293;28;20477;-76
2022/08/30 10:22:21;;;;;;;1.70;1.05;;;20.30;99.90;;;;;;5011722;28;20497;-77
2022/08/30 10:25:00;;;;;;;1.70;1.15;;;20.10;99.90;;;;;;4996218;28;20072;-77
2022/08/30 10:27:30;;;;;;;3.95;1.25;;;20.50;99.90;;;;;;5015698;28;20076;-78
2022/08/30 10:30:15;;;;;;;1.92;0.93;;;20.60;99.90;;;;;;5015699;28;20049;-74
2022/08/30 10:32:41;;;;;;;;;;;20.70;99.90;;;;;;5032663;28;20513;-76
2022/08/30 10:35:35;;;;;;;3.60;1.00;;;21.30;99.90;;;;;;5014797;28;19975;-75
2022/08/30 10:38:07;;;;;;;;;;;21.30;99.90;;;;;;5032112;28;20405;-77
2022/08/30 10:43:54;;;;;;;1.25;1.10;;;20.70;99.90;;;;;;5031602;28;20045;-79
2022/08/30 10:46:49;;;;;;;3.50;1.10;;;21.20;99.90;;;;;;5014988;28;20475;-77
2022/08/30 10:49:20;;;;;;;4.13;1.23;;;20.50;99.90;;;;;;5014698;28;20094;-78
2022/08/30 10:51:58;;;;;;;2.42;1.17;;;20.90;99.90;;;;;;5034466;28;20048;-76
2022/08/30 10:54:41;;;;;;;1.17;1.00;;;20.60;99.90;;;;;;5018934;28;20115;-78
2022/08/30 10:57:08;;;;;;;2.40;1.20;;;20.60;99.90;;;;;;5019465;28;20523;-78
2022/08/30 10:59:37;;;;;;;2.22;1.25;;;20.80;99.90;;;;;;5052597;28;20040;-79
2022/08/30 11:02:06;;;;;;;1.80;1.20;;;21.40;99.90;;;;;;5035394;28;20083;-79
2022/08/30 11:04:46;;;;;;;2.45;1.40;;;20.90;99.90;;;;;;5069023;28;20664;-80
2022/08/30 11:07:33;;;;;;;4.80;1.27;;;20.80;99.90;;;;;;5019308;28;20389;-78
2022/08/30 11:10:38;;;;;;;2.13;1.17;;;21.20;99.90;;;;;;5035883;28;20045;-79
2022/08/30 11:13:10;;;;;;;2.00;1.23;;;21.10;99.90;;;;;;5015743;28;20106;-79
2022/08/30 11:15:53;;;;;;;1.30;1.00;;;21.20;99.90;;;;;;4999087;28;20049;-79
2022/08/30 11:18:20;;;;;;;2.40;1.03;;;21.80;99.90;;;;;;4998517;28;20052;-77
2022/08/30 11:20:49;;;;;;;2.65;1.10;;;22.10;99.90;;;;;;4999613;28;20636;-77
2022/08/30 11:23:21;;;;;;;1.40;0.95;;;22.50;99.90;;;;;;4998369;28;20034;-79
2022/08/30 11:26:10;;;;;;;3.53;1.15;;;22.70;99.90;;;;;;4998969;28;20068;-78
2022/08/30 11:28:35;;;;;;;3.30;1.33;;;22.60;99.90;;;;;;5017409;28;20045;-78
2022/08/30 11:31:05;;;;;;;2.80;1.35;;;22.10;99.90;;;;;;5018927;28;20446;-79
2022/08/30 11:33:51;;;;;;;2.83;1.40;;;21.50;99.90;;;;;;5034728;28;20107;-78
2022/08/30 11:36:34;;;;;;;1.92;1.00;;;21.40;99.90;;;;;;5034980;28;20063;-79
2022/08/30 11:39:06;;;;;;;1.60;1.10;;;21.20;99.90;;;;;;5034745;28;20045;-78
2022/08/30 11:41:33;;;;;;;1.52;1.00;;;21.10;99.90;;;;;;5034757;28;20124;-81
2022/08/30 11:44:27;;;;;;;1.92;0.90;;;21.20;99.90;;;;;;5018383;28;20033;-77
2022/08/30 11:46:58;;;;;;;1.77;1.17;;;21.20;99.90;;;;;;5027661;28;20045;-80
2022/08/30 11:49:44;;;;;;;3.10;1.35;;;21.40;99.90;;;;;;5018193;28;20041;-77
2022/08/30 11:52:32;;;;;;;1.77;0.95;;;21.50;99.90;;;;;;5017993;28;20051;-80
2022/08/30 11:55:01;;;;;;;2.10;1.25;;;21.10;99.90;;;;;;5018505;28;20401;-75
2022/08/30 11:57:41;;;;;;;1.52;1.17;;;20.90;99.90;;;;;;5017678;28;20535;-77
2022/08/30 12:00:40;;;;;;;2.28;1.30;;;20.90;99.90;;;;;;5017788;28;20123;-77
2022/08/30 12:03:19;;;;;;;2.22;1.10;;;21.20;99.90;;;;;;4975522;28;20045;-78
2022/08/30 12:05:49;;;;;;;2.22;1.13;;;21.70;99.90;;;;;;5019246;28;20131;-79
2022/08/30 12:08:33;;;;;;;2.58;1.33;;;22.10;99.90;;;;;;5019039;28;20056;-76
2022/08/30 12:11:01;;;;;;;2.25;1.35;;;22.00;99.90;;;;;;5035531;28;20045;-78
2022/08/30 12:13:49;;;;;;;1.60;1.10;;;21.70;99.90;;;;;;5034799;28;20037;-77
2022/08/30 12:19:31;;;;;;;1.55;1.20;;;22.00;99.90;;;;;;5034274;28;20048;-77
2022/08/30 12:22:00;;;;;;;1.33;1.00;;;21.60;99.90;;;;;;5018184;28;20496;-77
2022/08/30 12:24:38;;;;;;;1.30;1.02;;;21.60;99.90;;;;;;5034514;28;20037;-77
2022/08/30 12:27:23;;;;;;;1.70;1.17;;;22.20;99.90;;;;;;5017930;28;20056;-77
2022/08/30 12:30:02;;;;;;;2.03;1.23;;;22.10;99.90;;;;;;5017860;28;20101;-76
2022/08/30 12:32:30;;;;;;;3.08;1.15;;;21.70;99.90;;;;;;5017710;28;20072;-80
2022/08/30 12:35:02;;;;;;;1.52;1.10;;;21.50;99.90;;;;;;5034600;28;20048;-78
2022/08/30 12:37:37;;;;;;;1.83;1.30;;;21.60;99.90;;;;;;5017901;28;20359;-78
2022/08/30 12:40:21;;;;;;;2.17;1.45;;;21.70;99.90;;;;;;5034741;28;20041;-76
2022/08/30 12:42:59;;;;;;;1.63;1.20;;;21.50;99.90;;;;;;5035142;28;20385;-76
2022/08/30 12:45:30;;;;;;;2.63;1.27;;;21.70;99.90;;;;;;5033951;28;20045;-74
2022/08/30 12:48:03;;;;;;;4.05;1.30;;;21.70;99.90;;;;;;5034494;28;20036;-77
2022/08/30 12:50:53;;;;;;;3.50;1.30;;;21.70;99.90;;;;;;5034174;28;20041;-78
2022/08/30 12:53:31;;;;;;;1.88;1.20;;;21.40;99.90;;;;;;5017899;28;20076;-78
2022/08/30 12:56:03;;;;;;;1.27;1.10;;;22.00;99.90;;;;;;5033855;28;20412;-77
2022/08/30 12:58:40;;;;;;;2.22;1.33;;;22.00;99.90;;;;;;5033547;28;20041;-77
2022/08/30 13:01:28;;;;;;;1.27;1.10;;;22.20;99.90;;;;;;5033707;28;20045;-78
2022/08/30 13:04:25;;;;;;;2.13;1.00;;;22.10;99.90;;;;;;5016106;28;20044;-77
2022/08/30 13:06:53;;;;;;;1.35;1.20;;;22.10;99.90;;;;;;5033558;28;20052;-77
2022/08/30 13:09:38;;;;;;;2.63;0.93;;;22.00;99.90;;;;;;5017598;28;20044;-77
2022/08/30 13:12:08;;;;;;;1.75;1.00;;;22.00;99.90;;;;;;5033935;28;20079;-76
2022/08/30 13:14:36;;;;;;;2.75;1.00;;;22.20;99.90;;;;;;5015930;28;20470;-77
2022/08/30 13:17:07;;;;;;;6.70;1.40;;;22.70;99.90;;;;;;5033909;28;20179;-79
2022/08/30 13:19:56;;;;;;;1.00;0.90;;;22.80;99.90;;;;;;5033338;28;20072;-77